Troy, Mississippi
Current Conditions -  °F | °C
As of 9:53 AM on Sunday 25 Jan 2015 (Local Time) from KTUP Reporting Station
Clear Clear  
Wind Chill: 45°   Ceiling: Unl
Heat Index: 49°   Visibility: 10mi
Dew Point: 38°   Wind: 9mph
Humidity: 66%   Direction: 170°S
Pressure: 29.81"   Gusts: NA
Location:  34.1762°N, 88.9612°W
Report Text: KTUP 251553Z 17008KT 10SM CLR 09/03 A2981 RMK AO2 SLP096 T00940033 $
Loading
Personal Weather Stations






























Interactive Weather Map New forecast layout! Learn more

10-Day Weather Forecast

Advertisements
Track Severe Weather on mobile